createdAt,value
2018-06-02T00:01:26.455Z,20.80
2018-06-02T00:06:29.028Z,20.80
2018-06-02T00:11:31.600Z,20.80
2018-06-02T00:16:34.134Z,20.70
2018-06-02T00:21:37.474Z,20.60
2018-06-02T00:26:40.028Z,20.60
2018-06-02T00:31:43.337Z,20.50
2018-06-02T00:36:45.886Z,20.40
2018-06-02T00:41:48.422Z,20.40
2018-06-02T00:46:50.975Z,20.40
2018-06-02T00:51:54.099Z,20.30
2018-06-02T00:56:56.633Z,20.30
2018-06-02T01:01:59.938Z,20.20
2018-06-02T01:07:02.481Z,20.10
2018-06-02T01:12:05.018Z,20.20
2018-06-02T01:17:07.570Z,20.10
2018-06-02T01:22:10.143Z,20.10
2018-06-02T01:27:12.690Z,20.00
2018-06-02T01:32:15.290Z,20.00
2018-06-02T01:37:17.842Z,20.00
2018-06-02T01:42:20.398Z,20.00
2018-06-02T01:47:23.701Z,20.00
2018-06-02T01:52:26.246Z,20.00
2018-06-02T01:57:28.822Z,20.10
2018-06-02T02:02:31.403Z,20.10
2018-06-02T02:07:34.739Z,20.10
2018-06-02T02:12:37.288Z,20.10
2018-06-02T02:17:39.877Z,20.20
2018-06-02T02:22:42.438Z,20.20
2018-06-02T02:27:45.003Z,20.30
2018-06-02T02:32:47.563Z,20.30
2018-06-02T02:37:50.107Z,20.30
2018-06-02T02:42:52.638Z,20.30
2018-06-02T02:47:55.181Z,20.30
2018-06-02T02:52:58.488Z,20.30
2018-06-02T02:58:01.796Z,20.40
2018-06-02T03:03:05.118Z,20.40
2018-06-02T03:08:08.440Z,20.30
2018-06-02T03:13:10.994Z,20.30
2018-06-02T03:18:13.538Z,20.30
2018-06-02T03:23:16.072Z,20.30
2018-06-02T03:28:18.673Z,20.20
2018-06-02T03:33:21.215Z,20.20
2018-06-02T03:38:23.855Z,20.10
2018-06-02T03:43:27.374Z,20.10
2018-06-02T03:48:29.931Z,20.00
2018-06-02T03:53:32.577Z,19.90
2018-06-02T03:58:35.166Z,19.90
2018-06-02T04:03:37.722Z,19.90
2018-06-02T04:08:40.297Z,19.80
2018-06-02T04:13:43.314Z,19.80
2018-06-02T04:18:45.858Z,19.80
2018-06-02T04:23:48.442Z,19.90
2018-06-02T04:28:50.968Z,19.80
2018-06-02T04:33:54.285Z,19.90
2018-06-02T04:38:57.622Z,19.90
2018-06-02T04:44:00.204Z,19.80
2018-06-02T04:49:02.782Z,19.90
2018-06-02T04:54:06.134Z,20.00
2018-06-02T04:59:08.711Z,19.90
2018-06-02T05:04:11.281Z,20.10
2018-06-02T05:09:14.598Z,20.10
2018-06-02T05:14:18.367Z,20.20
2018-06-02T05:19:20.951Z,20.10
2018-06-02T05:24:23.528Z,20.20
2018-06-02T05:29:26.097Z,20.30
2018-06-02T05:34:29.430Z,20.40
2018-06-02T05:39:32.743Z,20.40
2018-06-02T05:44:36.061Z,20.50
2018-06-02T05:49:38.597Z,20.40
2018-06-02T05:54:41.222Z,20.50
2018-06-02T05:59:45.167Z,20.60
2018-06-02T06:04:47.056Z,20.70
2018-06-02T06:09:49.629Z,20.70
2018-06-02T06:14:52.174Z,20.80
2018-06-02T06:19:54.722Z,21.00
2018-06-02T06:24:58.033Z,21.30
2018-06-02T06:30:01.355Z,21.40
2018-06-02T06:35:04.680Z,21.50
2018-06-02T06:40:07.291Z,21.40
2018-06-02T06:45:09.856Z,21.50
2018-06-02T06:50:13.218Z,21.70
2018-06-02T06:55:15.863Z,21.70
2018-06-02T07:00:19.176Z,22.00
2018-06-02T07:05:22.522Z,22.10
2018-06-02T07:10:25.173Z,22.00
2018-06-02T07:15:27.750Z,22.10
2018-06-02T07:20:30.304Z,22.20
2018-06-02T07:25:32.865Z,22.30
2018-06-02T07:30:36.161Z,22.50
2018-06-02T07:35:38.765Z,22.40
2018-06-02T07:40:41.329Z,22.60
2018-06-02T07:45:43.932Z,22.70
2018-06-02T07:50:46.519Z,22.80
2018-06-02T07:55:49.054Z,22.90
2018-06-02T08:00:51.602Z,23.00
2018-06-02T08:05:54.130Z,23.10
2018-06-02T08:10:56.697Z,23.10
2018-06-02T08:15:59.217Z,23.30
2018-06-02T08:21:01.738Z,23.40
2018-06-02T08:26:05.026Z,23.50
2018-06-02T08:31:07.561Z,23.50
2018-06-02T08:36:10.137Z,23.60
2018-06-02T08:41:13.429Z,23.70
2018-06-02T08:46:15.960Z,23.60
2018-06-02T08:51:18.497Z,23.70
2018-06-02T08:56:21.027Z,23.80
2018-06-02T09:01:24.339Z,23.70
2018-06-02T09:06:28.624Z,23.90
2018-06-02T09:11:31.934Z,24.00
2018-06-02T09:16:34.486Z,24.00
2018-06-02T09:21:37.869Z,24.30
2018-06-02T09:26:40.451Z,24.20
2018-06-02T09:31:43.005Z,24.30
2018-06-02T09:36:45.597Z,24.40
2018-06-02T09:41:48.952Z,24.40
2018-06-02T09:46:52.450Z,24.50
2018-06-02T09:51:58.206Z,24.50
2018-06-02T09:57:01.590Z,24.50
2018-06-02T10:02:04.933Z,24.60
2018-06-02T10:07:07.546Z,24.60
2018-06-02T10:12:11.099Z,24.80
2018-06-02T10:17:14.436Z,25.00
2018-06-02T10:22:17.062Z,25.20
2018-06-02T10:27:23.109Z,25.60
2018-06-02T10:32:28.439Z,25.90
2018-06-02T10:37:34.879Z,25.80
2018-06-02T10:42:39.100Z,26.40
2018-06-02T10:47:41.731Z,26.30
2018-06-02T10:52:44.357Z,26.50
2018-06-02T10:57:46.958Z,26.70
2018-06-02T11:02:49.643Z,26.90
2018-06-02T11:07:53.062Z,27.00
2018-06-02T11:12:55.704Z,26.90
2018-06-02T11:17:58.291Z,27.10
2018-06-02T11:23:00.893Z,27.30
2018-06-02T11:28:03.474Z,27.60
2018-06-02T11:33:06.099Z,27.80
2018-06-02T11:38:10.131Z,28.00
2018-06-02T11:43:14.569Z,28.20
2018-06-02T11:48:17.237Z,28.40
2018-06-02T11:53:20.691Z,28.70
2018-06-02T11:58:23.314Z,28.60
2018-06-02T12:03:25.939Z,28.90
2018-06-02T12:08:28.529Z,29.00
2018-06-02T12:13:31.866Z,29.40
2018-06-02T12:18:35.623Z,29.30
2018-06-02T12:23:41.343Z,29.50
2018-06-02T12:28:47.258Z,29.70
2018-06-02T12:33:53.153Z,29.90
2018-06-02T12:38:59.690Z,30.20
2018-06-02T12:49:37.273Z,30.30
2018-06-02T12:54:43.599Z,30.60
2018-06-02T12:59:50.585Z,30.80
2018-06-02T13:04:55.001Z,31.00
2018-06-02T13:09:57.600Z,31.20
2018-06-02T13:15:03.486Z,31.30
2018-06-02T13:20:15.931Z,31.40
2018-06-02T13:25:25.696Z,31.50
2018-06-02T13:30:31.149Z,31.60
2018-06-02T13:35:39.943Z,31.70
2018-06-02T13:40:46.630Z,31.80
2018-06-02T13:51:06.413Z,31.90
2018-06-02T13:56:23.846Z,31.90
2018-06-02T14:01:30.189Z,32.10
2018-06-02T14:06:40.491Z,32.00
2018-06-02T14:11:48.352Z,32.00
2018-06-02T14:16:56.913Z,32.00
2018-06-02T14:22:08.256Z,32.10
2018-06-02T14:27:18.563Z,32.30
2018-06-02T14:37:53.761Z,32.40
2018-06-02T14:48:25.045Z,32.40
2018-06-02T14:53:34.250Z,32.50
2018-06-02T14:58:41.141Z,32.50
2018-06-02T15:03:48.201Z,32.50
2018-06-02T15:08:56.874Z,32.60
2018-06-02T15:14:02.942Z,32.50
2018-06-02T15:19:09.648Z,32.40
2018-06-02T15:24:12.881Z,32.30
2018-06-02T15:29:19.197Z,32.00
2018-06-02T15:34:23.507Z,31.70
2018-06-02T15:39:29.851Z,31.50
2018-06-02T15:44:37.601Z,31.50
2018-06-02T15:49:40.874Z,31.40
2018-06-02T15:54:46.311Z,31.30
2018-06-02T15:59:53.321Z,31.20
2018-06-02T16:05:01.505Z,30.80
2018-06-02T16:10:07.005Z,30.70
2018-06-02T16:15:09.729Z,30.50
2018-06-02T16:20:16.038Z,30.20
2018-06-02T16:25:21.559Z,30.00
2018-06-02T16:30:27.855Z,29.90
2018-06-02T16:35:33.763Z,29.70
2018-06-02T16:40:38.089Z,29.70
2018-06-02T16:45:44.057Z,29.80
2018-06-02T16:50:48.932Z,29.90
2018-06-02T16:55:53.081Z,29.90
2018-06-02T17:01:00.891Z,29.90
2018-06-02T17:06:06.084Z,29.90
2018-06-02T17:11:10.601Z,29.80
2018-06-02T17:16:13.967Z,29.90
2018-06-02T17:21:22.593Z,29.70
2018-06-02T17:26:32.290Z,29.60
2018-06-02T17:31:37.981Z,29.50
2018-06-02T17:36:42.313Z,29.40
2018-06-02T17:41:54.758Z,29.30
2018-06-02T17:47:02.430Z,29.30
2018-06-02T17:52:07.813Z,29.10
2018-06-02T17:57:11.277Z,29.10
2018-06-02T18:02:17.226Z,29.00
2018-06-02T18:07:20.303Z,28.90
2018-06-02T18:12:24.690Z,28.60
2018-06-02T18:17:27.301Z,28.50
2018-06-02T18:22:29.929Z,28.50
2018-06-02T18:27:32.554Z,28.30
2018-06-02T18:32:38.178Z,28.00
2018-06-02T18:37:41.719Z,27.90
2018-06-02T18:42:44.452Z,27.90
2018-06-02T18:47:47.081Z,27.70
2018-06-02T18:52:49.687Z,27.50
2018-06-02T18:57:52.289Z,27.40
2018-06-02T19:02:55.670Z,27.30
2018-06-02T19:07:59.071Z,27.00
2018-06-02T19:13:01.644Z,26.90
2018-06-02T19:18:04.965Z,26.70
2018-06-02T19:23:08.349Z,26.50
2018-06-02T19:28:10.958Z,26.40
2018-06-02T19:33:14.868Z,26.20
2018-06-02T19:38:17.538Z,26.10
2018-06-02T19:43:20.139Z,26.10
2018-06-02T19:48:22.815Z,25.90
2018-06-02T19:53:25.383Z,25.80
2018-06-02T19:58:42.659Z,25.60
2018-06-02T20:03:45.253Z,25.50
2018-06-02T20:08:47.811Z,25.50
2018-06-02T20:13:51.240Z,25.30
2018-06-02T20:18:53.984Z,25.20
2018-06-02T20:23:56.592Z,25.20
2018-06-02T20:28:59.222Z,25.20
2018-06-02T20:34:02.735Z,25.00
2018-06-02T20:39:06.152Z,24.70
2018-06-02T20:44:08.752Z,24.50
2018-06-02T20:49:11.332Z,24.40
2018-06-02T20:54:13.953Z,24.20
2018-06-02T20:59:16.493Z,24.00
2018-06-02T21:04:19.079Z,24.00
2018-06-02T21:09:21.710Z,23.80
2018-06-02T21:14:25.110Z,23.80
2018-06-02T21:19:28.745Z,23.70
2018-06-02T21:24:32.535Z,23.70
2018-06-02T21:29:35.938Z,23.60
2018-06-02T21:34:38.511Z,23.60
2018-06-02T21:39:41.819Z,23.50
2018-06-02T21:44:47.894Z,23.30
2018-06-02T21:49:50.482Z,23.20
2018-06-02T21:54:53.098Z,23.10
2018-06-02T21:59:55.653Z,23.00
2018-06-02T22:04:59.027Z,22.90
2018-06-02T22:10:02.469Z,22.80
2018-06-02T22:15:05.040Z,22.80
2018-06-02T22:20:07.579Z,22.80
2018-06-02T22:25:14.325Z,22.60
2018-06-02T22:30:16.868Z,22.50
2018-06-02T22:35:20.180Z,22.40
2018-06-02T22:40:24.149Z,22.30
2018-06-02T22:45:26.698Z,22.20
2018-06-02T22:50:30.004Z,22.10
2018-06-02T22:55:33.520Z,22.10
2018-06-02T23:00:36.110Z,22.00
2018-06-02T23:05:38.656Z,22.00
2018-06-02T23:11:35.383Z,21.90
2018-06-02T23:16:38.924Z,21.80
2018-06-02T23:21:42.546Z,21.80
2018-06-02T23:26:46.174Z,21.70
2018-06-02T23:31:49.834Z,21.60
2018-06-02T23:36:53.398Z,21.50
2018-06-02T23:41:57.079Z,21.40
2018-06-02T23:47:01.244Z,21.30
2018-06-02T23:52:05.458Z,21.30
2018-06-02T23:57:08.989Z,21.20
